Time;durP1;ratioP1;P1;durP2;ratioP2;P2;SDS_P1;SDS_P2;PMS_P1;PMS_P2;Temp;Humidity;BMP_temperature;BMP_pressure;BME280_temperature;BME280_humidity;BME280_pressure;Samples;Min_cycle;Max_cycle;Signal;HPM_P1;HPM_P2
2021/12/18 00:01:04;;;;;;;18.92;11.60;;;;;;;8.53;60.59;99180.22;4981881;28;20195;-85
2021/12/18 00:03:29;;;;;;;19.38;11.65;;;;;;;8.55;60.94;99178.25;4986956;28;20127;-85
2021/12/18 00:05:55;;;;;;;18.65;10.88;;;;;;;8.54;60.70;99182.63;4975603;28;20218;-85
2021/12/18 00:08:20;;;;;;;18.38;11.43;;;;;;;8.50;60.88;99177.97;5003916;28;20285;-85
2021/12/18 00:10:45;;;;;;;18.05;10.63;;;;;;;8.44;61.52;99171.72;4989771;28;20631;-86
2021/12/18 00:13:12;;;;;;;16.98;10.68;;;;;;;8.43;61.10;99170.94;4984247;28;20715;-85
2021/12/18 00:15:38;;;;;;;18.10;10.88;;;;;;;8.39;61.18;99174.81;4999021;28;20245;-85
2021/12/18 00:18:03;;;;;;;17.73;10.25;;;;;;;8.27;61.57;99165.09;5002073;28;20296;-86
2021/12/18 00:20:30;;;;;;;19.35;11.20;;;;;;;8.46;60.96;99181.94;4966971;28;20166;-85
2021/12/18 00:22:56;;;;;;;22.88;11.00;;;;;;;8.39;60.99;99172.22;4987004;28;20180;-85
2021/12/18 00:25:22;;;;;;;19.60;10.70;;;;;;;8.39;60.83;99174.81;5005804;28;20630;-85
2021/12/18 00:27:47;;;;;;;18.85;10.60;;;;;;;8.36;61.22;99172.63;4988281;28;20099;-85
2021/12/18 00:30:13;;;;;;;20.20;11.05;;;;;;;8.20;61.39;99165.00;4978658;28;20202;-85
2021/12/18 00:32:38;;;;;;;22.67;12.80;;;;;;;8.24;61.70;99169.66;4981198;28;20197;-86
2021/12/18 00:35:04;;;;;;;24.75;12.75;;;;;;;8.32;61.30;99170.56;4969293;28;20212;-86
2021/12/18 00:37:30;;;;;;;20.98;12.88;;;;;;;8.27;61.77;99170.28;4974186;28;20239;-85
2021/12/18 00:39:58;;;;;;;24.55;12.77;;;;;;;8.17;61.55;99154.97;4980553;28;20735;-87
2021/12/18 00:42:41;;;;;;;;;;;;;;;;;;;;;
2021/12/18 00:45:08;;;;;;;21.02;12.60;;;;;;;8.07;61.50;99161.25;4981930;28;20637;-86
2021/12/18 00:47:33;;;;;;;24.23;12.60;;;;;;;8.18;62.02;99166.97;4951521;28;20358;-85
2021/12/18 00:49:59;;;;;;;21.52;12.07;;;;;;;8.14;61.82;99157.91;4949308;28;20237;-85
2021/12/18 00:52:24;;;;;;;21.83;12.88;;;;;;;8.19;61.34;99158.19;4976716;28;20205;-86
2021/12/18 00:54:50;;;;;;;22.58;13.00;;;;;;;8.05;62.23;99152.03;4960781;28;20708;-86
2021/12/18 00:57:16;;;;;;;24.75;12.95;;;;;;;8.00;62.42;99154.34;4999613;28;20802;-85
2021/12/18 00:59:41;;;;;;;23.52;12.52;;;;;;;8.02;62.46;99154.97;4966415;28;20202;-85
2021/12/18 01:02:07;;;;;;;23.42;12.63;;;;;;;7.95;61.82;99147.13;5003071;28;20663;-86
2021/12/18 01:04:33;;;;;;;23.58;12.88;;;;;;;8.03;62.36;99166.97;4981027;28;20178;-86
2021/12/18 01:06:58;;;;;;;23.52;12.05;;;;;;;7.96;62.45;99159.09;4972550;28;20187;-85
2021/12/18 01:09:38;;;;;;;22.58;11.85;;;;;;;7.99;62.12;99157.94;4982702;28;20219;-85
2021/12/18 01:12:06;;;;;;;23.83;12.27;;;;;;;7.88;62.52;99151.38;4966627;28;20339;-85
2021/12/18 01:24:59;;;;;;;22.48;11.75;;;;;;;7.98;62.44;99170.09;4986402;28;20229;-87
2021/12/18 01:27:24;;;;;;;25.75;13.10;;;;;;;7.91;63.12;99151.03;4980454;28;20265;-86
2021/12/18 01:29:50;;;;;;;23.58;11.65;;;;;;;8.10;63.08;99170.44;4994927;28;20691;-85
2021/12/18 01:32:15;;;;;;;21.48;11.07;;;;;;;8.15;62.77;99162.13;4958739;28;20421;-85
2021/12/18 01:34:41;;;;;;;23.55;12.98;;;;;;;8.19;62.85;99176.34;4994946;28;20538;-85
2021/12/18 01:37:06;;;;;;;22.80;11.70;;;;;;;8.14;63.52;99176.91;4982222;28;20297;-86
2021/12/18 01:39:32;;;;;;;22.55;11.23;;;;;;;8.25;63.09;99183.44;5000162;28;20264;-85
2021/12/18 01:52:36;;;;;;;18.38;9.32;;;;;;;8.23;64.12;99175.03;4994703;28;20222;-84
2021/12/18 01:55:02;;;;;;;18.08;9.98;;;;;;;8.41;63.49;99175.47;4980974;28;20288;-86
2021/12/18 01:57:28;;;;;;;16.75;9.60;;;;;;;8.29;63.83;99179.47;4969756;28;20267;-86
2021/12/18 01:59:54;;;;;;;16.52;9.63;;;;;;;8.16;64.57;99181.94;4971022;28;20577;-85
2021/12/18 02:02:20;;;;;;;17.38;9.65;;;;;;;8.39;63.68;99179.22;4969368;28;20219;-85
2021/12/18 02:04:46;;;;;;;17.35;9.85;;;;;;;8.56;62.72;99172.88;4981723;28;20267;-85
2021/12/18 02:07:11;;;;;;;16.77;9.65;;;;;;;8.18;64.31;99178.16;4990820;28;20078;-86
2021/12/18 02:12:30;;;;;;;16.52;9.50;;;;;;;8.36;63.78;99175.22;4968755;28;20299;-86
2021/12/18 02:20:41;;;;;;;15.02;9.15;;;;;;;8.18;63.80;99183.34;4990576;28;20317;-86
2021/12/18 02:23:03;;;;;;;15.27;9.40;;;;;;;8.07;64.47;99168.22;5009400;28;20369;-86
2021/12/18 02:25:31;;;;;;;18.48;9.00;;;;;;;8.33;64.04;99185.94;5006522;28;20101;-86
2021/12/18 02:27:57;;;;;;;15.95;9.52;;;;;;;8.15;64.74;99178.50;4982139;28;20160;-86
2021/12/18 02:30:23;;;;;;;17.58;9.80;;;;;;;8.51;63.56;99180.41;4968616;28;20194;-85
2021/12/18 02:32:50;;;;;;;16.50;10.05;;;;;;;8.43;63.76;99181.31;4967045;28;20235;-85
2021/12/18 02:35:35;;;;;;;17.48;9.60;;;;;;;8.12;63.80;99167.69;4992598;28;20273;-86
2021/12/18 02:38:11;;;;;;;15.88;9.32;;;;;;;8.54;63.20;99176.66;4979020;28;20088;-85
2021/12/18 02:43:28;;;;;;;20.33;10.02;;;;;;;8.20;63.82;99176.19;4987931;28;20192;-89
2021/12/18 02:45:59;;;;;;;19.70;10.43;;;;;;;8.54;63.31;99174.06;4993140;28;20587;-85
2021/12/18 02:48:26;;;;;;;15.80;9.10;;;;;;;8.35;63.27;99172.78;4987683;28;20342;-85
2021/12/18 02:50:51;;;;;;;17.60;9.55;;;;;;;8.44;63.76;99166.53;4988086;28;20593;-85
2021/12/18 02:53:17;;;;;;;18.52;10.43;;;;;;;8.20;64.04;99158.00;5003978;28;20194;-85
2021/12/18 02:55:42;;;;;;;17.65;9.88;;;;;;;8.43;63.34;99170.09;4979372;28;20209;-84
2021/12/18 02:58:08;;;;;;;19.98;10.40;;;;;;;8.50;63.34;99168.41;4991448;28;20190;-87
2021/12/18 03:00:33;;;;;;;18.17;10.40;;;;;;;8.54;63.04;99172.25;4979629;28;20337;-85
2021/12/18 03:03:04;;;;;;;16.05;9.65;;;;;;;8.65;63.16;99168.38;4972698;28;20640;-86
2021/12/18 03:05:36;;;;;;;16.85;9.80;;;;;;;8.52;63.43;99169.03;4975648;28;20680;-86
2021/12/18 03:08:10;;;;;;;16.92;9.20;;;;;;;8.75;62.88;99163.69;4954524;28;20338;-85
2021/12/18 03:20:37;;;;;;;20.58;11.38;;;;;;;8.83;62.80;99162.78;4975908;28;20178;-87
2021/12/18 03:24:34;;;;;;;18.23;10.02;;;;;;;8.52;63.54;99163.84;4987904;28;20329;-87
2021/12/18 03:26:59;;;;;;;17.75;9.80;;;;;;;8.54;63.22;99171.47;4992823;28;20182;-85
2021/12/18 03:29:26;;;;;;;18.60;10.70;;;;;;;8.55;63.16;99175.66;5008792;28;20205;-86
2021/12/18 03:31:51;;;;;;;20.67;10.65;;;;;;;8.53;63.70;99169.84;4998858;28;20191;-86
2021/12/18 03:34:17;;;;;;;19.73;11.27;;;;;;;8.44;63.28;99172.53;4953541;28;20207;-85
2021/12/18 03:36:42;;;;;;;21.70;10.82;;;;;;;8.68;62.90;99168.00;4968479;28;20140;-88
2021/12/18 03:39:08;;;;;;;20.13;10.23;;;;;;;8.49;63.84;99172.00;4997890;28;20280;-85
2021/12/18 03:41:33;;;;;;;18.02;10.85;;;;;;;8.77;62.95;99169.53;4966558;28;20188;-86
2021/12/18 03:43:59;;;;;;;19.08;10.57;;;;;;;8.62;63.18;99163.56;4972230;28;20206;-86
2021/12/18 03:46:24;;;;;;;20.20;10.70;;;;;;;8.77;62.87;99174.72;5006549;28;20163;-85
2021/12/18 03:48:50;;;;;;;18.65;10.43;;;;;;;8.80;62.58;99171.75;4989575;28;20164;-85
2021/12/18 03:51:15;;;;;;;18.77;9.35;;;;;;;8.83;62.70;99169.78;4988929;28;20270;-85
2021/12/18 03:53:41;;;;;;;18.63;9.77;;;;;;;8.81;62.16;99160.38;4986945;28;20644;-86
2021/12/18 03:56:06;;;;;;;18.83;10.70;;;;;;;8.61;62.88;99172.34;4985420;28;20167;-86
2021/12/18 03:58:31;;;;;;;20.77;11.48;;;;;;;8.70;62.57;99179.03;4978082;28;20599;-85
2021/12/18 04:00:57;;;;;;;18.17;9.63;;;;;;;8.66;63.08;99172.59;4985173;28;20206;-86
2021/12/18 04:03:22;;;;;;;19.95;10.90;;;;;;;8.70;62.66;99168.63;4984619;28;20100;-85
2021/12/18 04:05:48;;;;;;;23.35;11.38;;;;;;;8.46;63.11;99167.16;4967233;28;20233;-85
2021/12/18 04:08:14;;;;;;;17.40;10.48;;;;;;;8.54;63.36;99174.84;4959658;28;20271;-86
2021/12/18 04:10:40;;;;;;;18.25;10.10;;;;;;;8.46;63.15;99174.16;4963839;28;20196;-86
2021/12/18 04:13:07;;;;;;;17.27;10.20;;;;;;;8.52;62.87;99173.44;4955072;28;20191;-85
2021/12/18 04:15:33;;;;;;;19.60;11.15;;;;;;;8.66;62.82;99174.41;4971150;28;20273;-86
2021/12/18 04:17:58;;;;;;;20.02;10.88;;;;;;;8.66;62.93;99185.56;4972389;28;20285;-86
2021/12/18 04:20:24;;;;;;;18.05;10.43;;;;;;;8.69;62.72;99184.41;4991290;28;20198;-85
2021/12/18 04:22:50;;;;;;;20.00;10.05;;;;;;;8.59;63.04;99187.28;4964467;28;20105;-84
2021/12/18 04:25:15;;;;;;;22.90;11.55;;;;;;;8.77;62.07;99160.91;4975909;28;20204;-86
2021/12/18 04:27:41;;;;;;;19.13;12.07;;;;;;;8.69;62.49;99168.81;4985074;28;20213;-86
2021/12/18 04:30:07;;;;;;;19.08;10.52;;;;;;;8.54;63.25;99161.88;4960073;28;20280;-86
2021/12/18 04:32:32;;;;;;;20.80;10.90;;;;;;;8.83;62.73;99173.19;4959500;28;20186;-85
2021/12/18 04:34:57;;;;;;;21.58;11.00;;;;;;;8.74;62.60;99180.28;4965639;28;20247;-86
2021/12/18 04:37:23;;;;;;;18.40;9.82;;;;;;;8.43;63.44;99183.91;4977793;28;20088;-87
2021/12/18 04:39:49;;;;;;;20.25;11.00;;;;;;;8.69;63.17;99179.19;4972155;28;20171;-87
2021/12/18 04:42:15;;;;;;;22.55;12.25;;;;;;;8.74;63.03;99180.28;4964936;28;20269;-86
2021/12/18 04:44:40;;;;;;;20.10;10.95;;;;;;;8.62;62.98;99168.75;4971788;28;20343;-86
2021/12/18 04:47:06;;;;;;;21.55;11.88;;;;;;;8.61;63.19;99178.31;4976061;28;20639;-86
2021/12/18 04:49:31;;;;;;;21.55;11.15;;;;;;;8.59;63.25;99172.50;4976504;28;20300;-85
2021/12/18 04:51:56;;;;;;;23.40;11.73;;;;;;;8.65;62.77;99173.56;4964995;28;20211;-86
2021/12/18 04:54:22;;;;;;;27.02;12.23;;;;;;;8.62;63.22;99171.34;4952278;28;20176;-86
2021/12/18 04:56:47;;;;;;;25.23;12.50;;;;;;;8.50;63.19;99165.81;4976159;28;20259;-85
2021/12/18 04:59:13;;;;;;;23.88;12.18;;;;;;;8.61;63.38;99177.53;4965752;28;20483;-85
2021/12/18 05:01:40;;;;;;;26.50;12.40;;;;;;;8.67;63.41;99174.22;4981234;28;20185;-86
2021/12/18 05:04:09;;;;;;;23.05;12.50;;;;;;;8.49;63.77;99171.19;4966336;28;20281;-85
2021/12/18 05:06:37;;;;;;;27.70;13.23;;;;;;;8.60;63.58;99165.53;4978166;28;20724;-86
2021/12/18 05:09:03;;;;;;;23.25;12.70;;;;;;;8.18;64.43;99143.63;5009960;28;20163;-86
2021/12/18 05:11:29;;;;;;;21.25;11.30;;;;;;;8.14;65.24;99173.50;4962000;28;20244;-87
2021/12/18 05:13:54;;;;;;;22.40;10.93;;;;;;;7.98;65.10;99169.28;4970209;28;20651;-85
2021/12/18 05:16:21;;;;;;;22.17;11.68;;;;;;;8.19;64.86;99163.38;4984274;28;20395;-87
2021/12/18 05:18:46;;;;;;;22.85;11.45;;;;;;;8.10;64.97;99167.06;4962093;28;20725;-89
2021/12/18 05:21:12;;;;;;;21.33;10.73;;;;;;;8.26;64.85;99164.28;4992618;28;20258;-87
2021/12/18 05:23:37;;;;;;;25.35;12.00;;;;;;;8.15;65.18;99175.13;4960116;28;20225;-87
2021/12/18 05:26:03;;;;;;;25.52;11.63;;;;;;;7.98;65.74;99167.50;4988194;28;20287;-86
2021/12/18 05:28:28;;;;;;;24.77;11.13;;;;;;;8.07;65.63;99170.81;4976928;28;20270;-87
2021/12/18 05:30:53;;;;;;;25.33;12.20;;;;;;;8.11;65.44;99171.28;4987165;28;20282;-86
2021/12/18 05:33:19;;;;;;;24.05;11.73;;;;;;;8.06;65.38;99175.19;4990053;28;20273;-86
2021/12/18 05:35:45;;;;;;;23.40;11.70;;;;;;;7.97;65.37;99173.69;4995639;28;20193;-86
2021/12/18 05:38:10;;;;;;;23.67;12.35;;;;;;;7.99;65.74;99184.69;4956722;28;20225;-89
2021/12/18 05:40:37;;;;;;;26.02;11.57;;;;;;;8.13;64.70;99170.09;4959258;28;20648;-83
2021/12/18 05:43:04;;;;;;;28.25;13.95;;;;;;;8.05;65.32;99162.41;4965371;28;20721;-87
2021/12/18 05:45:29;;;;;;;27.90;12.80;;;;;;;7.77;66.37;99172.59;4979274;28;20294;-86
2021/12/18 05:47:55;;;;;;;24.85;12.48;;;;;;;7.94;66.33;99171.44;4993924;28;20100;-86
2021/12/18 05:50:21;;;;;;;30.30;14.48;;;;;;;8.06;65.93;99171.81;4980746;28;20185;-87
2021/12/18 05:52:47;;;;;;;31.00;13.82;;;;;;;8.36;64.83;99175.22;4990436;28;20284;-86
2021/12/18 05:55:14;;;;;;;27.48;13.77;;;;;;;8.32;64.76;99168.75;5008566;28;20365;-86
2021/12/18 05:57:40;;;;;;;30.95;13.25;;;;;;;8.27;64.92;99171.09;4984245;28;20272;-87
2021/12/18 06:00:07;;;;;;;26.15;12.32;;;;;;;8.05;65.37;99175.38;4970150;28;20695;-86
2021/12/18 06:02:32;;;;;;;27.02;12.32;;;;;;;7.54;67.21;99172.59;4972434;28;20674;-84
2021/12/18 06:04:58;;;;;;;31.20;13.52;;;;;;;7.69;67.28;99182.06;4990834;28;20099;-85
2021/12/18 06:07:31;;;;;;;31.35;13.15;;;;;;;7.57;67.00;99180.03;4965135;28;20175;-86
2021/12/18 06:09:58;;;;;;;33.60;13.70;;;;;;;7.75;67.17;99183.13;4977061;28;20247;-85
2021/12/18 06:12:23;;;;;;;28.33;11.73;;;;;;;7.35;67.77;99177.31;5002823;28;20269;-83
2021/12/18 06:14:49;;;;;;;33.05;14.65;;;;;;;7.31;68.13;99182.00;4988496;28;20291;-85
2021/12/18 06:17:15;;;;;;;35.28;14.48;;;;;;;7.58;67.10;99181.66;4986429;28;20325;-88
2021/12/18 06:19:40;;;;;;;35.35;15.55;;;;;;;7.64;66.95;99173.16;4959473;28;20215;-83
2021/12/18 06:22:05;;;;;;;37.03;15.95;;;;;;;7.88;66.45;99182.50;4964500;28;20191;-85
2021/12/18 06:24:31;;;;;;;35.50;15.52;;;;;;;8.05;65.90;99178.78;4970198;28;20308;-85
2021/12/18 06:26:56;;;;;;;39.38;16.25;;;;;;;8.19;65.61;99171.16;4962200;28;20437;-85
2021/12/18 06:29:22;;;;;;;31.65;15.32;;;;;;;8.11;65.37;99181.66;4999679;28;20220;-84
2021/12/18 06:31:47;;;;;;;32.28;14.75;;;;;;;8.00;65.68;99183.72;4989713;28;20412;-85
2021/12/18 06:34:14;;;;;;;33.83;14.82;;;;;;;7.75;66.44;99182.31;4981251;28;20362;-85
2021/12/18 06:36:39;;;;;;;35.65;15.82;;;;;;;7.96;66.17;99182.44;4980390;28;20246;-84
2021/12/18 06:39:05;;;;;;;39.33;17.38;;;;;;;8.03;65.59;99178.13;4978341;28;20244;-85
2021/12/18 06:41:30;;;;;;;38.13;15.52;;;;;;;7.85;66.35;99182.88;4989086;28;20681;-85
2021/12/18 06:43:56;;;;;;;38.78;15.43;;;;;;;7.75;66.57;99188.31;4958653;28;20109;-86
2021/12/18 06:46:21;;;;;;;36.85;15.15;;;;;;;7.64;67.00;99180.94;4973629;28;20028;-87
2021/12/18 06:48:47;;;;;;;37.70;14.85;;;;;;;7.39;67.70;99182.94;4968650;28;20685;-86
2021/12/18 06:51:12;;;;;;;35.65;15.93;;;;;;;7.57;66.71;99165.28;4976980;28;20254;-85
2021/12/18 06:53:38;;;;;;;38.25;16.27;;;;;;;7.38;67.74;99181.31;4987920;28;20221;-85
2021/12/18 06:56:04;;;;;;;35.95;16.27;;;;;;;7.24;67.19;99173.31;4962510;28;20218;-85
2021/12/18 06:58:29;;;;;;;35.45;14.63;;;;;;;7.60;66.35;99170.13;4995992;28;20138;-85
2021/12/18 07:00:55;;;;;;;38.10;14.60;;;;;;;7.62;66.72;99183.72;4966932;28;20246;-85
2021/12/18 07:03:21;;;;;;;36.65;15.35;;;;;;;7.60;66.51;99190.06;4987263;28;20702;-85
2021/12/18 07:05:48;;;;;;;33.50;13.93;;;;;;;7.60;66.31;99188.28;4960745;28;20201;-86
2021/12/18 07:08:14;;;;;;;29.02;12.95;;;;;;;7.75;65.90;99192.69;4982735;28;20186;-84
2021/12/18 07:10:39;;;;;;;29.90;14.27;;;;;;;7.85;65.40;99188.06;4984516;28;20206;-86
2021/12/18 07:13:05;;;;;;;35.33;14.98;;;;;;;7.71;65.26;99194.00;4968818;28;20274;-87
2021/12/18 07:15:30;;;;;;;34.25;15.75;;;;;;;7.58;65.40;99189.44;4994377;28;20522;-84
2021/12/18 07:17:55;;;;;;;32.58;15.45;;;;;;;7.68;65.41;99198.56;4991710;28;20265;-85
2021/12/18 07:20:21;;;;;;;30.30;14.68;;;;;;;7.62;65.46;99178.53;4986798;28;20251;-85
2021/12/18 07:22:46;;;;;;;30.73;12.60;;;;;;;7.19;66.62;99192.97;4983533;28;20211;-84
2021/12/18 07:25:12;;;;;;;28.40;13.05;;;;;;;7.45;65.95;99190.00;4968375;28;20191;-85
2021/12/18 07:27:37;;;;;;;28.48;14.77;;;;;;;7.61;65.76;99187.31;4987260;28;20288;-86
2021/12/18 07:30:04;;;;;;;37.38;17.38;;;;;;;7.87;64.63;99189.50;4986771;28;20306;-85
2021/12/18 07:32:29;;;;;;;33.55;15.35;;;;;;;7.40;65.50;99200.91;4972225;28;20844;-86
2021/12/18 07:34:56;;;;;;;26.75;12.23;;;;;;;7.50;65.22;99183.34;4988525;28;20325;-86
2021/12/18 07:37:24;;;;;;;28.75;14.00;;;;;;;7.69;65.00;99194.19;4970455;28;20069;-86
2021/12/18 07:39:49;;;;;;;29.80;13.80;;;;;;;7.82;64.75;99183.22;4971181;28;20636;-86
2021/12/18 07:42:15;;;;;;;29.85;14.13;;;;;;;7.75;64.53;99198.69;5002675;28;20070;-85
2021/12/18 07:44:42;;;;;;;26.92;12.30;;;;;;;7.38;65.35;99184.72;4990177;28;20271;-85
2021/12/18 07:47:07;;;;;;;25.88;12.60;;;;;;;7.45;65.08;99190.84;4980010;28;20208;-84
2021/12/18 07:49:32;;;;;;;29.92;13.98;;;;;;;7.44;65.42;99184.03;5004882;28;20164;-85
2021/12/18 07:52:02;;;;;;;25.88;11.57;;;;;;;7.07;66.43;99189.97;5003459;28;20206;-88
2021/12/18 07:54:27;;;;;;;22.83;11.70;;;;;;;6.72;67.10;99197.28;4972964;28;20270;-86
2021/12/18 07:56:53;;;;;;;25.98;13.00;;;;;;;6.83;66.97;99190.91;4990824;28;20263;-85
2021/12/18 07:59:18;;;;;;;31.60;13.68;;;;;;;6.90;66.54;99195.22;4989181;28;20736;-87
2021/12/18 08:01:44;;;;;;;28.25;13.60;;;;;;;6.79;66.81;99207.78;4983149;28;20421;-85
2021/12/18 08:04:09;;;;;;;45.10;23.52;;;;;;;6.88;66.94;99196.38;4982074;28;20210;-85
2021/12/18 08:06:35;;;;;;;47.47;20.77;;;;;;;6.91;66.72;99194.25;4954257;28;20370;-87
2021/12/18 08:09:00;;;;;;;38.03;19.65;;;;;;;6.69;66.98;99195.03;4994433;28;20716;-87
2021/12/18 08:11:25;;;;;;;33.92;15.60;;;;;;;7.08;65.98;99196.75;4965549;28;20225;-85
2021/12/18 08:13:51;;;;;;;31.83;15.15;;;;;;;7.19;65.47;99192.97;4972022;28;20693;-84
2021/12/18 08:16:16;;;;;;;28.15;14.07;;;;;;;7.43;64.56;99197.97;4985678;28;20643;-86
2021/12/18 08:18:42;;;;;;;31.17;15.05;;;;;;;7.41;64.73;99197.34;4989613;28;20633;-85
2021/12/18 08:21:07;;;;;;;28.80;13.27;;;;;;;7.52;64.62;99177.97;4985146;28;20275;-86
2021/12/18 08:23:32;;;;;;;28.17;13.45;;;;;;;7.74;64.11;99191.06;4985792;28;20277;-85
2021/12/18 08:25:58;;;;;;;27.63;12.90;;;;;;;7.82;64.04;99193.59;4963040;28;20645;-85
2021/12/18 08:28:23;;;;;;;24.63;12.63;;;;;;;7.64;63.59;99194.72;4989000;28;20572;-85
2021/12/18 08:30:49;;;;;;;23.17;11.32;;;;;;;7.44;64.81;99191.81;4959505;28;20255;-87
2021/12/18 08:33:14;;;;;;;22.60;10.57;;;;;;;7.34;64.74;99187.84;5003196;28;20166;-87
2021/12/18 08:35:40;;;;;;;26.27;12.45;;;;;;;7.44;64.25;99186.63;4986966;28;20105;-86
2021/12/18 08:38:05;;;;;;;24.63;12.23;;;;;;;7.53;64.79;99189.94;4970993;28;20696;-85
2021/12/18 08:40:32;;;;;;;28.67;13.68;;;;;;;7.57;64.45;99191.22;4969621;28;20254;-87
2021/12/18 08:43:00;;;;;;;25.08;11.32;;;;;;;7.72;63.52;99187.84;4965333;28;20354;-87
2021/12/18 08:45:26;;;;;;;26.42;12.85;;;;;;;7.65;64.24;99193.72;4988877;28;20276;-87
2021/12/18 08:47:52;;;;;;;26.58;12.68;;;;;;;7.10;65.47;99185.22;4974884;28;20302;-85
2021/12/18 08:50:21;;;;;;;21.70;10.68;;;;;;;6.94;65.59;99175.78;4980012;28;20201;-84
2021/12/18 08:52:48;;;;;;;24.17;12.02;;;;;;;7.17;65.44;99200.09;4972759;28;20167;-82
2021/12/18 08:55:15;;;;;;;24.45;11.15;;;;;;;7.28;65.13;99192.75;4973177;28;20395;-86
2021/12/18 08:57:40;;;;;;;25.90;11.55;;;;;;;7.41;64.66;99184.38;4972893;28;20382;-86
2021/12/18 09:00:12;;;;;;;25.27;12.23;;;;;;;7.43;64.32;99185.00;4974339;28;20194;-85
2021/12/18 09:02:40;;;;;;;28.20;13.57;;;;;;;7.54;64.69;99195.94;4993630;28;20279;-85
2021/12/18 09:05:06;;;;;;;27.20;11.65;;;;;;;6.70;66.42;99187.09;4961602;28;20605;-88
2021/12/18 09:07:31;;;;;;;25.58;12.07;;;;;;;7.01;66.03;99195.81;4987077;28;20237;-87
2021/12/18 09:09:57;;;;;;;26.77;12.32;;;;;;;6.83;66.60;99196.88;4955491;28;20252;-87
2021/12/18 09:12:22;;;;;;;25.88;12.20;;;;;;;6.70;66.47;99204.38;4979741;28;20193;-86
2021/12/18 09:14:48;;;;;;;25.17;11.52;;;;;;;6.50;67.76;99204.00;4967410;28;20593;-84
2021/12/18 09:17:13;;;;;;;28.42;13.65;;;;;;;6.69;66.61;99195.03;4988483;28;20290;-83
2021/12/18 09:19:38;;;;;;;27.40;13.32;;;;;;;7.00;66.33;99204.56;4963707;28;20210;-86
2021/12/18 09:22:06;;;;;;;29.35;12.90;;;;;;;7.23;65.63;99199.41;4979408;28;20198;-86
2021/12/18 09:24:32;;;;;;;26.63;12.73;;;;;;;7.04;65.71;99200.66;4970629;28;20104;-85
2021/12/18 09:26:57;;;;;;;29.70;13.75;;;;;;;7.23;65.82;99196.81;4981425;28;20663;-85
2021/12/18 09:29:23;;;;;;;27.70;12.68;;;;;;;7.07;65.95;99189.97;4998242;28;20225;-84
2021/12/18 09:31:49;;;;;;;25.58;13.02;;;;;;;7.40;65.18;99205.28;4990133;28;20708;-84
2021/12/18 09:34:14;;;;;;;25.25;12.88;;;;;;;7.14;65.41;99206.41;4958800;28;20350;-85
2021/12/18 09:36:39;;;;;;;24.73;10.82;;;;;;;7.22;65.80;99211.56;4987815;28;20382;-85
2021/12/18 09:39:05;;;;;;;28.92;12.23;;;;;;;7.12;65.77;99201.41;4994919;28;20516;-85
2021/12/18 09:41:31;;;;;;;27.65;12.52;;;;;;;7.13;66.08;99199.66;4978338;28;20190;-85
2021/12/18 09:43:56;;;;;;;24.38;11.02;;;;;;;7.01;66.43;99199.22;4978350;28;20240;-85
2021/12/18 09:46:22;;;;;;;24.48;11.82;;;;;;;7.25;65.86;99192.28;4958641;28;20351;-84
2021/12/18 09:48:47;;;;;;;33.80;16.90;;;;;;;7.03;66.11;99194.69;4987076;28;20201;-85
2021/12/18 09:51:24;;;;;;;29.05;12.70;;;;;;;7.17;65.97;99206.09;4981716;28;20074;-84
2021/12/18 09:53:52;;;;;;;28.02;12.18;;;;;;;7.09;66.58;99198.34;4968233;28;20236;-85
2021/12/18 09:56:18;;;;;;;26.98;12.13;;;;;;;7.22;65.84;99198.59;4960329;28;20347;-85
2021/12/18 09:58:43;;;;;;;32.10;13.40;;;;;;;7.30;66.06;99200.34;4983938;28;20299;-85
2021/12/18 10:01:09;;;;;;;27.83;11.95;;;;;;;7.43;65.86;99184.19;4957802;28;20167;-84
2021/12/18 10:03:49;;;;;;;25.95;11.88;;;;;;;7.34;65.78;99188.66;4990112;28;20230;-85
2021/12/18 10:06:44;;;;;;;29.08;11.52;;;;;;;7.08;66.03;99192.38;4965228;28;20260;-85
2021/12/18 10:09:19;;;;;;;27.52;11.40;;;;;;;6.58;67.93;99191.03;4966664;28;20228;-84
2021/12/18 10:11:51;;;;;;;28.23;11.85;;;;;;;7.05;66.99;99187.53;4961668;28;20228;-85
2021/12/18 10:14:18;;;;;;;30.70;13.05;;;;;;;7.23;66.58;99178.66;4982052;28;20207;-85
2021/12/18 10:16:51;;;;;;;28.60;13.15;;;;;;;7.22;66.43;99172.69;4989802;28;20654;-86
2021/12/18 10:19:23;;;;;;;27.80;11.35;;;;;;;7.20;66.97;99174.66;4973603;28;20732;-85
2021/12/18 10:21:56;;;;;;;29.38;13.18;;;;;;;7.23;66.03;99158.78;4983972;28;20281;-84
2021/12/18 10:24:21;;;;;;;26.80;11.95;;;;;;;7.51;65.60;99160.81;4984007;28;20242;-85
2021/12/18 10:26:47;;;;;;;30.20;12.65;;;;;;;7.51;66.04;99160.81;4983843;28;20598;-84
2021/12/18 10:29:23;;;;;;;32.78;13.68;;;;;;;7.30;65.60;99154.50;4973479;28;20202;-85
2021/12/18 10:31:50;;;;;;;37.75;15.45;;;;;;;7.47;66.08;99159.53;4970390;28;20375;-86
2021/12/18 10:34:20;;;;;;;33.00;13.73;;;;;;;7.10;67.34;99158.53;4979672;28;20507;-86
2021/12/18 10:37:08;;;;;;;32.47;15.55;;;;;;;6.71;68.09;99162.00;4999893;28;20785;-85
2021/12/18 10:39:36;;;;;;;37.00;17.20;;;;;;;7.40;66.44;99156.03;4949298;28;20636;-85
2021/12/18 10:42:19;;;;;;;42.53;15.98;;;;;;;7.25;66.44;99141.25;4955490;28;20633;-84
2021/12/18 10:45:14;;;;;;;32.20;13.63;;;;;;;7.23;66.98;99148.41;4982286;28;20248;-84
2021/12/18 10:47:51;;;;;;;35.63;15.18;;;;;;;7.07;67.74;99143.34;4988317;28;20564;-86
2021/12/18 10:50:34;;;;;;;33.08;15.18;;;;;;;7.10;67.40;99132.63;4987861;28;20710;-84
2021/12/18 10:53:03;;;;;;;38.78;13.65;;;;;;;7.12;67.87;99143.63;4977109;28;20186;-85
2021/12/18 10:55:33;;;;;;;42.58;16.02;;;;;;;7.37;67.21;99144.25;4987969;28;20172;-85
2021/12/18 10:58:01;;;;;;;44.08;16.80;;;;;;;7.65;66.69;99139.28;4941619;28;20203;-84
2021/12/18 11:00:32;;;;;;;35.92;14.45;;;;;;;7.20;67.60;99142.78;4973164;28;20420;-84
2021/12/18 11:02:57;;;;;;;39.83;15.60;;;;;;;7.64;65.98;99140.28;4970888;28;20640;-84
2021/12/18 11:05:23;;;;;;;38.50;15.55;;;;;;;7.73;65.75;99137.59;4979713;28;20156;-85
2021/12/18 11:08:07;;;;;;;34.72;14.63;;;;;;;7.59;66.28;99141.78;4984165;28;20281;-84
2021/12/18 11:16:00;;;;;;;37.72;13.23;;;;;;;7.12;67.83;99141.03;4973593;28;20268;-84
2021/12/18 11:18:26;;;;;;;45.55;14.55;;;;;;;7.00;68.08;99124.28;4966775;28;20702;-82
2021/12/18 11:20:52;;;;;;;53.60;25.10;;;;;;;7.21;67.78;99132.22;4977036;28;20458;-89
2021/12/18 11:23:26;;;;;;;37.75;17.38;;;;;;;7.00;68.07;99130.25;4962567;28;20221;-87
2021/12/18 11:25:52;;;;;;;44.45;18.98;;;;;;;7.23;67.83;99125.09;4987618;28;20274;-85
2021/12/18 11:28:18;;;;;;;42.78;15.15;;;;;;;6.88;68.78;99119.50;4960520;28;20537;-85
2021/12/18 11:30:44;;;;;;;51.63;18.40;;;;;;;7.20;67.92;99112.47;4968294;28;20240;-87
2021/12/18 11:33:09;;;;;;;44.88;17.27;;;;;;;7.29;68.13;99111.41;4965620;28;20369;-85
2021/12/18 11:35:36;;;;;;;44.33;16.25;;;;;;;7.45;67.34;99114.84;4987353;28;20641;-85
2021/12/18 11:38:04;;;;;;;45.95;17.48;;;;;;;7.30;67.50;99107.88;4960636;28;20212;-86
2021/12/18 11:40:33;;;;;;;44.08;15.75;;;;;;;7.55;66.96;99105.03;4971230;28;20110;-85
2021/12/18 11:42:58;;;;;;;58.38;23.15;;;;;;;7.51;67.14;99096.00;4990376;28;20583;-85
2021/12/18 11:45:35;;;;;;;57.67;20.42;;;;;;;7.24;67.16;99077.47;4975126;28;20199;-85
2021/12/18 11:48:02;;;;;;;48.95;17.73;;;;;;;7.80;66.67;99089.25;4985322;28;20160;-85
2021/12/18 11:50:32;;;;;;;39.53;16.98;;;;;;;8.04;65.52;99096.75;4988519;28;20210;-85
2021/12/18 11:53:06;;;;;;;44.38;17.45;;;;;;;7.91;65.42;99083.59;4999694;28;20175;-85
2021/12/18 11:55:48;;;;;;;48.90;20.43;;;;;;;7.82;65.49;99085.47;4999325;28;20656;-85
2021/12/18 11:58:33;;;;;;;52.47;16.85;;;;;;;7.54;66.39;99093.06;4994230;28;20944;-85
2021/12/18 12:01:13;;;;;;;47.40;14.88;;;;;;;7.71;65.78;99095.50;4990906;28;20301;-85
2021/12/18 12:03:45;;;;;;;38.13;14.73;;;;;;;7.76;65.68;99088.81;4968704;28;20690;-84
2021/12/18 12:06:30;;;;;;;45.38;14.38;;;;;;;7.32;67.46;99087.75;5009700;28;20248;-84
2021/12/18 12:09:23;;;;;;;68.07;17.50;;;;;;;7.36;66.71;99095.19;4969009;28;20196;-85
2021/12/18 12:12:01;;;;;;;54.17;18.02;;;;;;;7.39;67.16;99087.06;4986925;28;20280;-85
2021/12/18 12:14:31;;;;;;;53.78;15.73;;;;;;;7.67;66.42;99082.88;4986876;28;20192;-85
2021/12/18 12:17:05;;;;;;;50.10;16.15;;;;;;;7.70;66.62;99084.31;4980596;28;20264;-85